Time,TemperatureF,DewpointF,PressureIn,WindDirection,WindDirectionDegrees,WindSpeedMPH,WindSpeedGustMPH,Humidity,HourlyPrecipIn,Conditions,Clouds,dailyrainin,SoftwareType,DateUTC
2013-01-02 00:00:00,68.5,59.2,30.01,SE,135,0.0,0.0,72,0.00,CLR,,0.00,WeatherDisplay:10.37,2013-01-02 05:00:00,
2013-01-02 00:01:00,68.5,59.2,30.01,SE,135,0.0,0.0,72,0.00,CLR,,0.00,WeatherDisplay:10.37,2013-01-02 05:01:00,
2013-01-02 00:03:00,68.5,59.2,30.01,SE,135,0.0,0.0,72,0.00,CLR,,0.00,WeatherDisplay:10.37,2013-01-02 05:03:00,
2013-01-02 00:08:00,68.5,59.2,30.00,South,180,0.0,0.0,72,0.00,CLR,,0.00,WeatherDisplay:10.37,2013-01-02 05:08:00,
2013-01-02 00:13:00,68.4,59.4,30.00,SSW,202,0.0,0.0,73,0.00,CLR,,0.00,WeatherDisplay:10.37,2013-01-02 05:13:00,
2013-01-02 00:18:00,68.4,59.4,30.00,SW,225,0.0,0.0,73,0.00,CLR,,0.00,WeatherDisplay:10.37,2013-01-02 05:18:00,
2013-01-02 00:23:00,68.5,59.5,30.00,SW,225,0.0,0.0,73,0.00,CLR,,0.00,WeatherDisplay:10.37,2013-01-02 05:23:00,
2013-01-02 00:28:00,68.2,59.2,30.00,SW,225,0.0,0.0,73,0.00,CLR,,0.00,WeatherDisplay:10.37,2013-01-02 05:28:00,
2013-01-02 00:33:00,68.0,59.0,30.00,SW,225,0.0,0.0,73,0.00,CLR,,0.00,WeatherDisplay:10.37,2013-01-02 05:33:00,
2013-01-02 00:38:00,67.8,58.8,30.00,WSW,248,0.0,0.0,73,0.00,CLR,,0.00,WeatherDisplay:10.37,2013-01-02 05:38:00,
2013-01-02 00:43:00,68.0,59.0,30.00,WSW,248,0.0,0.0,73,0.00,CLR,,0.00,WeatherDisplay:10.37,2013-01-02 05:43:00,
2013-01-02 00:48:00,67.8,58.8,29.99,WSW,248,0.0,0.0,73,0.00,CLR,,0.00,WeatherDisplay:10.37,2013-01-02 05:48:00,
2013-01-02 00:53:00,67.8,58.8,29.99,WSW,248,0.0,0.0,73,0.00,CLR,,0.00,WeatherDisplay:10.37,2013-01-02 05:53:00,
2013-01-02 00:58:00,67.6,58.7,29.99,WSW,248,0.0,0.0,73,0.00,CLR,,0.00,WeatherDisplay:10.37,2013-01-02 05:58:00,
2013-01-02 01:03:00,67.5,58.5,29.99,West,270,0.0,0.0,73,0.00,CLR,,0.00,WeatherDisplay:10.37,2013-01-02 06:03:00,
2013-01-02 01:08:00,67.5,58.5,29.99,West,270,0.0,0.0,73,0.00,CLR,,0.00,WeatherDisplay:10.37,2013-01-02 06:08:00,
2013-01-02 01:13:00,67.3,58.3,29.99,West,270,0.0,0.0,73,0.00,CLR,,0.00,WeatherDisplay:10.37,2013-01-02 06:13:00,
2013-01-02 01:18:00,67.3,58.3,29.99,WSW,248,0.0,0.0,73,0.00,CLR,,0.00,WeatherDisplay:10.37,2013-01-02 06:18:00,
2013-01-02 01:23:00,67.3,58.3,29.99,WSW,248,0.0,0.0,73,0.00,CLR,,0.00,WeatherDisplay:10.37,2013-01-02 06:23:00,
2013-01-02 01:28:00,67.1,58.5,29.99,NW,315,0.0,0.0,74,0.00,CLR,,0.00,WeatherDisplay:10.37,2013-01-02 06:28:00,
2013-01-02 01:33:00,67.1,58.5,29.99,WNW,292,0.0,0.0,74,0.00,CLR,,0.00,WeatherDisplay:10.37,2013-01-02 06:33:00,
2013-01-02 01:38:00,66.9,58.4,29.99,WNW,292,0.0,0.0,74,0.00,CLR,,0.00,WeatherDisplay:10.37,2013-01-02 06:38:00,
2013-01-02 01:43:00,66.7,58.2,29.99,SW,225,0.0,0.0,74,0.00,CLR,,0.00,WeatherDisplay:10.37,2013-01-02 06:43:00,
2013-01-02 01:48:00,66.6,58.4,29.99,West,270,0.0,0.0,75,0.00,CLR,,0.00,WeatherDisplay:10.37,2013-01-02 06:48:00,
2013-01-02 01:53:00,66.6,58.4,29.99,NW,315,0.0,0.0,75,0.00,CLR,,0.00,WeatherDisplay:10.37,2013-01-02 06:53:00,
2013-01-02 01:58:00,66.6,58.4,29.99,NW,315,0.0,0.0,75,0.00,CLR,,0.00,WeatherDisplay:10.37,2013-01-02 06:58:00,
2013-01-02 02:03:00,66.6,58.4,29.99,WNW,292,0.0,0.0,75,0.00,CLR,,0.00,WeatherDisplay:10.37,2013-01-02 07:03:00,
2013-01-02 02:08:00,66.4,58.2,29.98,NW,315,0.0,0.0,75,0.00,CLR,,0.00,WeatherDisplay:10.37,2013-01-02 07:08:00,
2013-01-02 02:13:00,66.4,58.2,29.98,NW,315,0.0,0.0,75,0.00,CLR,,0.00,WeatherDisplay:10.37,2013-01-02 07:13:00,
2013-01-02 02:18:00,66.2,58.0,29.98,NW,315,0.0,0.0,75,0.00,CLR,,0.00,WeatherDisplay:10.37,2013-01-02 07:18:00,
2013-01-02 02:23:00,66.2,58.0,29.98,West,270,0.0,0.0,75,0.00,CLR,,0.00,WeatherDisplay:10.37,2013-01-02 07:23:00,
2013-01-02 02:28:00,66.4,58.2,29.98,NW,315,0.0,0.0,75,0.00,CLR,,0.00,WeatherDisplay:10.37,2013-01-02 07:28:00,
2013-01-02 02:33:00,66.0,57.9,29.98,NNW,338,0.0,0.0,75,0.00,CLR,,0.00,WeatherDisplay:10.37,2013-01-02 07:33:00,
2013-01-02 02:38:00,66.0,57.9,29.98,West,270,0.0,0.0,75,0.00,CLR,,0.00,WeatherDisplay:10.37,2013-01-02 07:38:00,
2013-01-02 02:43:00,65.8,57.7,29.98,WNW,292,0.0,0.0,75,0.00,CLR,,0.00,WeatherDisplay:10.37,2013-01-02 07:43:00,
2013-01-02 02:48:00,66.0,57.9,29.99,West,270,0.0,0.0,75,0.00,CLR,,0.00,WeatherDisplay:10.37,2013-01-02 07:48:00,
2013-01-02 02:53:00,66.0,57.9,29.99,WNW,292,0.0,0.0,75,0.00,CLR,,0.00,WeatherDisplay:10.37,2013-01-02 07:53:00,
2013-01-02 02:58:00,65.8,58.1,29.99,NW,315,0.0,0.0,76,0.00,CLR,,0.00,WeatherDisplay:10.37,2013-01-02 07:58:00,
2013-01-02 03:03:00,65.8,58.1,29.99,NW,315,0.0,0.0,76,0.00,CLR,,0.00,WeatherDisplay:10.37,2013-01-02 08:03:00,
2013-01-02 03:08:00,65.8,58.1,29.99,WNW,292,0.0,0.0,76,0.00,CLR,,0.00,WeatherDisplay:10.37,2013-01-02 08:08:00,
2013-01-02 03:13:00,65.8,58.1,29.99,West,270,0.0,0.0,76,0.00,CLR,,0.00,WeatherDisplay:10.37,2013-01-02 08:13:00,
2013-01-02 03:18:00,65.5,57.7,29.99,WSW,248,0.0,0.0,76,0.00,CLR,,0.00,WeatherDisplay:10.37,2013-01-02 08:18:00,
2013-01-02 03:23:00,65.7,57.9,29.99,West,270,0.0,0.0,76,0.00,CLR,,0.00,WeatherDisplay:10.37,2013-01-02 08:23:00,
2013-01-02 03:28:00,65.5,57.7,29.98,WSW,248,0.0,0.0,76,0.00,CLR,,0.00,WeatherDisplay:10.37,2013-01-02 08:28:00,
2013-01-02 03:33:00,65.5,58.1,29.98,NW,315,0.0,0.0,77,0.00,CLR,,0.00,WeatherDisplay:10.37,2013-01-02 08:33:00,
2013-01-02 03:38:00,65.7,58.3,29.98,NW,315,0.0,0.0,77,0.00,CLR,,0.00,WeatherDisplay:10.37,2013-01-02 08:38:00,
2013-01-02 03:43:00,66.0,58.6,29.98,NW,315,0.0,0.0,77,0.00,CLR,,0.00,WeatherDisplay:10.37,2013-01-02 08:43:00,
2013-01-02 03:48:00,66.0,58.6,29.98,WSW,248,0.0,0.0,77,0.00,CLR,,0.00,WeatherDisplay:10.37,2013-01-02 08:48:00,
2013-01-02 03:53:00,66.2,58.4,29.98,North,0,0.0,0.0,76,0.00,CLR,,0.00,WeatherDisplay:10.37,2013-01-02 08:53:00,
2013-01-02 03:58:00,66.2,58.4,29.98,NE,45,0.0,0.0,76,0.00,CLR,,0.00,WeatherDisplay:10.37,2013-01-02 08:58:00,
2013-01-02 04:03:00,66.2,58.4,29.98,NE,45,0.0,0.0,76,0.00,CLR,,0.00,WeatherDisplay:10.37,2013-01-02 09:03:00,
2013-01-02 04:08:00,66.4,58.6,29.98,NNE,22,0.0,0.0,76,0.00,CLR,,0.00,WeatherDisplay:10.37,2013-01-02 09:08:00,
2013-01-02 04:13:00,66.4,58.6,29.98,NNE,22,0.0,0.0,76,0.00,CLR,,0.00,WeatherDisplay:10.37,2013-01-02 09:13:00,
2013-01-02 04:18:00,66.4,58.6,29.98,SW,225,0.0,0.0,76,0.00,CLR,,0.00,WeatherDisplay:10.37,2013-01-02 09:18:00,
2013-01-02 04:23:00,66.2,58.4,29.98,ENE,68,0.0,0.0,76,0.00,CLR,,0.00,WeatherDisplay:10.37,2013-01-02 09:23:00,
2013-01-02 04:28:00,66.0,58.6,29.98,NE,45,0.0,0.0,77,0.00,CLR,,0.00,WeatherDisplay:10.37,2013-01-02 09:28:00,
2013-01-02 04:33:00,66.0,58.6,29.98,ENE,68,0.0,0.0,77,0.00,CLR,,0.00,WeatherDisplay:10.37,2013-01-02 09:33:00,
2013-01-02 04:38:00,65.7,58.3,29.98,NW,315,0.0,0.0,77,0.00,CLR,,0.00,WeatherDisplay:10.37,2013-01-02 09:38:00,
2013-01-02 04:43:00,65.7,58.3,29.98,West,270,0.0,0.0,77,0.00,CLR,,0.00,WeatherDisplay:10.37,2013-01-02 09:43:00,
2013-01-02 04:48:00,65.5,58.1,29.98,North,0,0.0,0.0,77,0.00,CLR,,0.00,WeatherDisplay:10.37,2013-01-02 09:48:00,
2013-01-02 04:54:00,65.5,58.1,29.98,West,270,0.0,0.0,77,0.00,CLR,,0.00,WeatherDisplay:10.37,2013-01-02 09:54:00,
2013-01-02 04:59:00,65.3,57.9,29.98,NW,315,0.0,0.0,77,0.00,CLR,,0.00,WeatherDisplay:10.37,2013-01-02 09:59:00,
2013-01-02 05:04:00,65.3,57.9,29.98,NW,315,0.0,0.0,77,0.00,CLR,,0.00,WeatherDisplay:10.37,2013-01-02 10:04:00,
2013-01-02 05:09:00,65.3,57.9,29.98,NW,315,0.0,0.0,77,0.00,CLR,,0.00,WeatherDisplay:10.37,2013-01-02 10:09:00,
2013-01-02 05:14:00,65.1,57.7,29.98,NE,45,0.0,0.0,77,0.00,CLR,,0.00,WeatherDisplay:10.37,2013-01-02 10:14:00,
2013-01-02 05:19:00,65.1,57.7,29.98,NW,315,0.0,0.0,77,0.00,CLR,,0.00,WeatherDisplay:10.37,2013-01-02 10:19:00,
2013-01-02 05:24:00,65.1,57.7,29.98,NW,315,0.0,0.0,77,0.00,CLR,,0.00,WeatherDisplay:10.37,2013-01-02 10:24:00,
2013-01-02 05:29:00,65.1,57.7,29.99,WSW,248,0.0,0.0,77,0.00,CLR,,0.00,WeatherDisplay:10.37,2013-01-02 10:29:00,
2013-01-02 05:34:00,65.1,57.7,29.99,WSW,248,0.0,0.0,77,0.00,CLR,,0.00,WeatherDisplay:10.37,2013-01-02 10:34:00,
2013-01-02 05:39:00,65.1,58.4,29.99,WNW,292,0.0,0.0,79,0.00,CLR,,0.00,WeatherDisplay:10.37,2013-01-02 10:39:00,
2013-01-02 05:44:00,64.9,58.3,29.99,WNW,292,0.0,0.0,79,0.00,CLR,,0.00,WeatherDisplay:10.37,2013-01-02 10:44:00,
2013-01-02 05:49:00,64.9,58.6,29.99,WNW,292,0.0,0.0,80,0.00,CLR,,0.00,WeatherDisplay:10.37,2013-01-02 10:49:00,
2013-01-02 05:54:00,64.8,58.4,29.99,WNW,292,0.0,0.0,80,0.00,CLR,,0.00,WeatherDisplay:10.37,2013-01-02 10:54:00,
2013-01-02 05:59:00,64.9,59.0,29.99,WNW,292,0.0,0.0,81,0.00,CLR,,0.00,WeatherDisplay:10.37,2013-01-02 10:59:00,
2013-01-02 06:04:00,64.8,58.8,29.99,West,270,0.0,0.0,81,0.00,CLR,,0.00,WeatherDisplay:10.37,2013-01-02 11:04:00,
2013-01-02 06:09:00,64.8,59.1,29.99,WNW,292,0.0,0.0,82,0.00,CLR,,0.00,WeatherDisplay:10.37,2013-01-02 11:09:00,
2013-01-02 06:14:00,64.6,58.6,29.99,WNW,292,0.0,0.0,81,0.00,CLR,,0.00,WeatherDisplay:10.37,2013-01-02 11:14:00,
2013-01-02 06:19:00,64.4,58.4,29.99,NW,315,0.0,0.0,81,0.00,CLR,,0.00,WeatherDisplay:10.37,2013-01-02 11:19:00,
2013-01-02 06:24:00,64.4,58.1,29.99,NW,315,0.0,0.0,80,0.00,CLR,,0.00,WeatherDisplay:10.37,2013-01-02 11:24:00,
2013-01-02 06:29:00,64.4,58.1,29.99,NW,315,0.0,0.0,80,0.00,CLR,,0.00,WeatherDisplay:10.37,2013-01-02 11:29:00,
2013-01-02 06:34:00,64.2,57.9,29.99,NW,315,0.0,0.0,80,0.00,CLR,,0.00,WeatherDisplay:10.37,2013-01-02 11:34:00,
2013-01-02 06:39:00,64.2,57.9,29.99,West,270,0.0,0.0,80,0.00,CLR,,0.00,WeatherDisplay:10.37,2013-01-02 11:39:00,
2013-01-02 06:44:00,64.0,57.7,29.99,WNW,292,0.0,0.0,80,0.00,CLR,,0.00,WeatherDisplay:10.37,2013-01-02 11:44:00,
2013-01-02 06:49:00,64.2,57.9,30.00,North,0,0.0,0.0,80,0.00,CLR,,0.00,WeatherDisplay:10.37,2013-01-02 11:49:00,
2013-01-02 06:54:00,64.0,57.7,30.00,NW,315,0.0,0.0,80,0.00,CLR,,0.00,WeatherDisplay:10.37,2013-01-02 11:54:00,
2013-01-02 06:59:00,64.0,58.1,30.00,NW,315,0.0,0.0,81,0.00,CLR,,0.00,WeatherDisplay:10.37,2013-01-02 11:59:00,
2013-01-02 07:04:00,64.2,58.3,30.00,NNW,338,0.0,0.0,81,0.00,CLR,,0.00,WeatherDisplay:10.37,2013-01-02 12:04:00,
2013-01-02 07:09:00,64.2,58.3,30.00,NNW,338,0.0,0.0,81,0.00,CLR,,0.00,WeatherDisplay:10.37,2013-01-02 12:09:00,
2013-01-02 07:14:00,64.2,58.3,30.00,North,0,0.0,0.0,81,0.00,CLR,,0.00,WeatherDisplay:10.37,2013-01-02 12:14:00,
2013-01-02 07:19:00,64.4,58.4,30.00,NNW,338,0.0,0.0,81,0.00,CLR,,0.00,WeatherDisplay:10.37,2013-01-02 12:19:00,
2013-01-02 07:24:00,64.4,58.4,30.00,NNW,338,0.0,0.0,81,0.00,CLR,,0.00,WeatherDisplay:10.37,2013-01-02 12:24:00,
2013-01-02 07:29:00,64.6,58.6,30.00,NW,315,0.0,0.0,81,0.00,CLR,,0.00,WeatherDisplay:10.37,2013-01-02 12:29:00,
2013-01-02 07:34:00,64.9,59.3,30.00,NNW,338,0.0,0.0,82,0.00,CLR,,0.00,WeatherDisplay:10.37,2013-01-02 12:34:00,
2013-01-02 07:39:00,65.1,59.5,30.00,NW,315,0.0,0.0,82,0.00,CLR,,0.00,WeatherDisplay:10.37,2013-01-02 12:39:00,
2013-01-02 07:44:00,65.5,59.8,30.00,West,270,0.0,0.0,82,0.00,CLR,,0.00,WeatherDisplay:10.37,2013-01-02 12:44:00,
2013-01-02 07:49:00,65.8,60.2,30.00,West,270,0.0,0.0,82,0.00,CLR,,0.00,WeatherDisplay:10.37,2013-01-02 12:49:00,
2013-01-02 07:54:00,65.8,60.2,30.00,West,270,0.0,0.0,82,0.00,CLR,,0.00,WeatherDisplay:10.37,2013-01-02 12:54:00,
2013-01-02 07:59:00,66.4,60.7,30.00,NW,315,0.0,0.0,82,0.00,CLR,,0.00,WeatherDisplay:10.37,2013-01-02 12:59:00,
2013-01-02 08:04:00,66.7,61.1,30.00,NW,315,0.0,0.0,82,0.00,CLR,,0.00,WeatherDisplay:10.37,2013-01-02 13:04:00,
2013-01-02 08:09:00,66.9,61.2,30.01,NW,315,0.0,0.0,82,0.00,CLR,,0.00,WeatherDisplay:10.37,2013-01-02 13:09:00,
2013-01-02 08:14:00,67.3,61.6,30.01,WNW,292,0.0,0.0,82,0.00,CLR,,0.00,WeatherDisplay:10.37,2013-01-02 13:14:00,
2013-01-02 08:19:00,67.5,61.8,30.01,WNW,292,0.0,0.0,82,0.00,CLR,,0.00,WeatherDisplay:10.37,2013-01-02 13:19:00,
2013-01-02 08:24:00,68.0,62.3,30.01,NNW,338,0.0,0.0,82,0.00,CLR,,0.00,WeatherDisplay:10.37,2013-01-02 13:24:00,
2013-01-02 08:29:00,68.2,62.5,30.01,West,270,0.0,0.1,82,0.00,CLR,,0.00,WeatherDisplay:10.37,2013-01-02 13:29:00,
2013-01-02 08:34:00,68.7,63.0,30.01,South,180,0.0,0.1,82,0.00,CLR,,0.00,WeatherDisplay:10.37,2013-01-02 13:34:00,
2013-01-02 08:39:00,68.9,62.8,30.01,SSW,202,0.0,0.0,81,0.00,CLR,,0.00,WeatherDisplay:10.37,2013-01-02 13:39:00,
2013-01-02 08:44:00,69.4,63.0,30.01,WNW,292,0.0,0.0,80,0.00,CLR,,0.00,WeatherDisplay:10.37,2013-01-02 13:44:00,
2013-01-02 08:49:00,69.6,63.2,30.01,WNW,292,0.0,0.0,80,0.00,CLR,,0.00,WeatherDisplay:10.37,2013-01-02 13:49:00,
2013-01-02 08:54:00,70.0,63.5,30.01,West,270,0.0,0.0,80,0.00,CLR,,0.00,WeatherDisplay:10.37,2013-01-02 13:54:00,
2013-01-02 08:59:00,70.2,63.7,30.01,West,270,0.0,0.0,80,0.00,CLR,,0.00,WeatherDisplay:10.37,2013-01-02 13:59:00,
2013-01-02 09:04:00,70.5,63.7,30.01,NW,315,0.0,0.0,79,0.00,CLR,,0.00,WeatherDisplay:10.37,2013-01-02 14:04:00,
2013-01-02 09:09:00,70.7,63.9,30.01,WSW,248,0.0,0.0,79,0.00,CLR,,0.00,WeatherDisplay:10.37,2013-01-02 14:09:00,
2013-01-02 09:14:00,71.2,64.4,30.01,SW,225,0.0,0.0,79,0.00,CLR,,0.00,WeatherDisplay:10.37,2013-01-02 14:14:00,
2013-01-02 09:19:00,71.4,64.2,30.01,WSW,248,0.0,0.0,78,0.00,CLR,,0.00,WeatherDisplay:10.37,2013-01-02 14:19:00,
2013-01-02 09:24:00,71.8,64.2,30.01,SSE,158,0.0,0.0,77,0.00,CLR,,0.00,WeatherDisplay:10.37,2013-01-02 14:24:00,
2013-01-02 09:29:00,72.0,64.4,30.01,ENE,68,0.0,0.0,77,0.00,CLR,,0.00,WeatherDisplay:10.37,2013-01-02 14:29:00,
2013-01-02 09:34:00,72.5,64.5,30.01,SE,135,0.0,0.0,76,0.00,CLR,,0.00,WeatherDisplay:10.37,2013-01-02 14:34:00,
2013-01-02 09:39:00,72.7,64.7,30.01,West,270,0.0,0.0,76,0.00,CLR,,0.00,WeatherDisplay:10.37,2013-01-02 14:39:00,
2013-01-02 09:44:00,72.9,64.8,30.01,SE,135,0.0,0.0,76,0.00,CLR,,0.00,WeatherDisplay:10.37,2013-01-02 14:44:00,
2013-01-02 09:49:00,73.2,64.8,30.01,WNW,292,0.0,0.1,75,0.00,CLR,,0.00,WeatherDisplay:10.37,2013-01-02 14:49:00,
2013-01-02 09:54:00,73.6,65.2,30.01,South,180,3.5,3.5,75,0.00,CLR,,0.00,WeatherDisplay:10.37,2013-01-02 14:54:00,
2013-01-02 09:59:00,73.9,65.5,30.01,SSW,202,1.4,1.4,75,0.00,CLR,,0.00,WeatherDisplay:10.37,2013-01-02 14:59:00,
2013-01-02 10:04:00,74.1,65.7,30.01,SSE,158,1.1,1.1,75,0.00,CLR,,0.00,WeatherDisplay:10.37,2013-01-02 15:04:00,
2013-01-02 10:09:00,74.3,65.5,30.02,ESE,112,3.7,3.7,74,0.00,CLR,,0.00,WeatherDisplay:10.37,2013-01-02 15:09:00,
2013-01-02 10:14:00,74.7,65.4,30.02,South,180,3.5,3.5,73,0.00,CLR,,0.00,WeatherDisplay:10.37,2013-01-02 15:14:00,
2013-01-02 10:19:00,74.7,65.8,30.02,South,180,2.3,2.3,74,0.00,CLR,,0.00,WeatherDisplay:10.37,2013-01-02 15:19:00,
2013-01-02 10:24:00,74.7,65.4,30.02,South,180,0.0,1.6,73,0.00,CLR,,0.00,WeatherDisplay:10.37,2013-01-02 15:24:00,
2013-01-02 10:29:00,74.8,65.6,30.01,SE,135,4.6,4.6,73,0.00,CLR,,0.00,WeatherDisplay:10.37,2013-01-02 15:29:00,
2013-01-02 10:34:00,75.4,66.1,30.01,SE,135,6.3,6.3,73,0.00,CLR,,0.00,WeatherDisplay:10.37,2013-01-02 15:34:00,
2013-01-02 10:39:00,75.7,66.5,30.01,SE,135,5.8,5.8,73,0.00,CLR,,0.00,WeatherDisplay:10.37,2013-01-02 15:39:00,
2013-01-02 10:44:00,75.6,65.9,30.01,SE,135,5.8,5.8,72,0.00,CLR,,0.00,WeatherDisplay:10.37,2013-01-02 15:44:00,
2013-01-02 10:49:00,75.7,66.1,30.01,SSE,158,3.5,3.5,72,0.00,CLR,,0.00,WeatherDisplay:10.37,2013-01-02 15:49:00,
2013-01-02 10:54:00,75.9,66.2,30.01,SE,135,3.7,3.7,72,0.00,CLR,,0.00,WeatherDisplay:10.37,2013-01-02 15:54:00,
2013-01-02 10:59:00,75.9,65.8,30.01,South,180,5.1,5.1,71,0.00,CLR,,0.00,WeatherDisplay:10.37,2013-01-02 15:59:00,
2013-01-02 11:04:00,75.7,65.7,30.01,SE,135,6.4,6.4,71,0.00,CLR,,0.00,WeatherDisplay:10.37,2013-01-02 16:04:00,
2013-01-02 11:09:00,75.7,65.7,30.01,SSE,158,4.6,4.6,71,0.00,CLR,,0.00,WeatherDisplay:10.37,2013-01-02 16:09:00,
2013-01-02 11:14:00,75.4,65.3,30.01,East,90,3.1,3.1,71,0.00,CLR,,0.00,WeatherDisplay:10.37,2013-01-02 16:14:00,
2013-01-02 11:19:00,75.4,65.3,30.01,NNE,22,3.5,3.5,71,0.00,CLR,,0.00,WeatherDisplay:10.37,2013-01-02 16:19:00,
2013-01-02 11:24:00,75.0,65.0,30.01,NW,315,2.3,2.3,71,0.00,CLR,,0.00,WeatherDisplay:10.37,2013-01-02 16:24:00,
2013-01-02 11:29:00,75.0,65.0,30.01,ENE,68,0.0,0.3,71,0.00,CLR,,0.00,WeatherDisplay:10.37,2013-01-02 16:29:00,
2013-01-02 11:34:00,76.5,66.4,30.01,NW,315,3.5,3.5,71,0.00,CLR,,0.00,WeatherDisplay:10.37,2013-01-02 16:34:00,
2013-01-02 11:39:00,76.8,66.7,30.01,West,270,3.5,3.5,71,0.00,CLR,,0.00,WeatherDisplay:10.37,2013-01-02 16:39:00,
2013-01-02 11:44:00,77.7,67.2,30.01,SE,135,4.6,4.6,70,0.00,CLR,,0.00,WeatherDisplay:10.37,2013-01-02 16:44:00,
2013-01-02 11:49:00,78.3,67.3,30.00,SSE,158,4.6,4.6,69,0.00,CLR,,0.00,WeatherDisplay:10.37,2013-01-02 16:49:00,
2013-01-02 11:54:00,78.8,67.8,30.00,SSE,158,5.8,5.8,69,0.00,CLR,,0.00,WeatherDisplay:10.37,2013-01-02 16:54:00,
2013-01-02 11:59:00,78.4,67.4,30.00,South,180,8.1,8.1,69,0.00,CLR,,0.00,WeatherDisplay:10.37,2013-01-02 16:59:00,
2013-01-02 12:04:00,78.1,66.7,30.00,SE,135,2.6,3.5,68,0.00,CLR,,0.00,WeatherDisplay:10.37,2013-01-02 17:04:00,
2013-01-02 12:09:00,78.1,66.7,29.99,SE,135,2.6,3.5,68,0.00,CLR,,0.00,WeatherDisplay:10.37,2013-01-02 17:09:00,
2013-01-02 12:14:00,79.3,67.4,29.99,SW,225,5.8,5.8,67,0.00,CLR,,0.00,WeatherDisplay:10.37,2013-01-02 17:14:00,
2013-01-02 12:19:00,79.2,67.3,29.99,SE,135,4.6,4.6,67,0.00,CLR,,0.00,WeatherDisplay:10.37,2013-01-02 17:19:00,
2013-01-02 12:24:00,79.5,67.6,29.99,South,180,5.8,5.8,67,0.00,CLR,,0.00,WeatherDisplay:10.37,2013-01-02 17:24:00,
2013-01-02 12:29:00,79.3,67.4,29.98,SW,225,6.9,6.9,67,0.00,CLR,,0.00,WeatherDisplay:10.37,2013-01-02 17:29:00,
2013-01-02 12:34:00,78.3,66.4,29.98,SSE,158,4.6,4.6,67,0.00,CLR,,0.00,WeatherDisplay:10.37,2013-01-02 17:34:00,
2013-01-02 12:39:00,77.7,65.9,29.98,South,180,4.6,4.6,67,0.00,CLR,,0.00,WeatherDisplay:10.37,2013-01-02 17:39:00,
2013-01-02 12:44:00,77.4,66.0,29.98,SW,225,4.6,4.6,68,0.00,CLR,,0.00,WeatherDisplay:10.37,2013-01-02 17:44:00,
2013-01-02 12:49:00,77.4,66.4,29.98,WSW,248,2.3,2.3,69,0.00,CLR,,0.00,WeatherDisplay:10.37,2013-01-02 17:49:00,
2013-01-02 12:54:00,77.4,66.4,29.98,SE,135,4.6,4.6,69,0.00,CLR,,0.00,WeatherDisplay:10.37,2013-01-02 17:54:00,
2013-01-02 12:59:00,77.4,66.0,29.98,SE,135,3.5,3.5,68,0.00,CLR,,0.00,WeatherDisplay:10.37,2013-01-02 17:59:00,
2013-01-02 13:04:00,77.9,66.5,29.98,SE,135,6.9,6.9,68,0.00,CLR,,0.00,WeatherDisplay:10.37,2013-01-02 18:04:00,
2013-01-02 13:09:00,78.3,66.8,29.96,SSE,158,7.4,7.4,68,0.00,CLR,,0.00,WeatherDisplay:10.37,2013-01-02 18:09:00,
2013-01-02 13:14:00,78.6,67.2,29.96,SSE,158,5.8,5.8,68,0.00,CLR,,0.00,WeatherDisplay:10.37,2013-01-02 18:14:00,
2013-01-02 13:19:00,78.8,66.9,29.96,ESE,112,5.2,5.2,67,0.00,CLR,,0.00,WeatherDisplay:10.37,2013-01-02 18:19:00,
2013-01-02 13:24:00,78.8,66.5,29.96,South,180,5.8,5.8,66,0.00,CLR,,0.00,WeatherDisplay:10.37,2013-01-02 18:24:00,
2013-01-02 13:29:00,78.8,66.9,29.96,South,180,6.2,6.2,67,0.00,CLR,,0.00,WeatherDisplay:10.37,2013-01-02 18:29:00,
2013-01-02 13:35:00,78.8,66.5,29.96,South,180,7.1,7.1,66,0.00,CLR,,0.00,WeatherDisplay:10.37,2013-01-02 18:35:00,
2013-01-02 13:40:00,78.6,66.3,29.96,South,180,6.9,6.9,66,0.00,CLR,,0.00,WeatherDisplay:10.37,2013-01-02 18:40:00,
2013-01-02 13:45:00,78.8,66.5,29.96,SSE,158,4.6,4.9,66,0.00,CLR,,0.00,WeatherDisplay:10.37,2013-01-02 18:45:00,
2013-01-02 13:50:00,79.0,66.6,29.95,SE,135,6.9,6.9,66,0.00,CLR,,0.00,WeatherDisplay:10.37,2013-01-02 18:50:00,
2013-01-02 13:55:00,79.0,66.6,29.95,SE,135,6.9,6.9,66,0.00,CLR,,0.00,WeatherDisplay:10.37,2013-01-02 18:55:00,
2013-01-02 14:00:00,78.6,66.3,29.95,SE,135,6.9,6.9,66,0.00,CLR,,0.00,WeatherDisplay:10.37,2013-01-02 19:00:00,
2013-01-02 14:05:00,78.6,66.7,29.95,SSE,158,4.3,4.5,67,0.00,CLR,,0.00,WeatherDisplay:10.37,2013-01-02 19:05:00,
2013-01-02 14:10:00,78.3,66.4,29.95,SE,135,6.9,6.9,67,0.00,CLR,,0.00,WeatherDisplay:10.37,2013-01-02 19:10:00,
2013-01-02 14:15:00,78.1,66.2,29.95,SSE,158,4.6,4.6,67,0.00,CLR,,0.00,WeatherDisplay:10.37,2013-01-02 19:15:00,
2013-01-02 14:20:00,78.3,66.4,29.95,ESE,112,3.6,3.8,67,0.00,CLR,,0.00,WeatherDisplay:10.37,2013-01-02 19:20:00,
2013-01-02 14:25:00,78.3,66.4,29.95,SSE,158,6.9,6.9,67,0.00,CLR,,0.00,WeatherDisplay:10.37,2013-01-02 19:25:00,
2013-01-02 14:30:00,78.6,66.7,29.94,SE,135,8.2,8.2,67,0.00,CLR,,0.00,WeatherDisplay:10.37,2013-01-02 19:30:00,
2013-01-02 14:35:00,78.6,66.7,29.94,ESE,112,6.9,6.9,67,0.00,CLR,,0.00,WeatherDisplay:10.37,2013-01-02 19:35:00,
2013-01-02 14:40:00,78.8,66.9,29.94,South,180,4.9,4.9,67,0.00,CLR,,0.00,WeatherDisplay:10.37,2013-01-02 19:40:00,
2013-01-02 14:45:00,78.4,66.6,29.94,South,180,6.9,6.9,67,0.00,CLR,,0.00,WeatherDisplay:10.37,2013-01-02 19:45:00,
2013-01-02 14:50:00,78.3,66.4,29.95,SE,135,4.6,4.6,67,0.00,CLR,,0.00,WeatherDisplay:10.37,2013-01-02 19:50:00,
2013-01-02 14:55:00,78.1,66.2,29.95,ESE,112,4.6,4.6,67,0.00,CLR,,0.00,WeatherDisplay:10.37,2013-01-02 19:55:00,
2013-01-02 15:00:00,77.7,65.9,29.95,SSE,158,7.2,7.2,67,0.00,CLR,,0.00,WeatherDisplay:10.37,2013-01-02 20:00:00,
2013-01-02 15:05:00,77.5,66.1,29.95,South,180,6.9,6.9,68,0.00,CLR,,0.00,WeatherDisplay:10.37,2013-01-02 20:05:00,
2013-01-02 15:10:00,77.9,66.9,29.95,South,180,8.5,8.5,69,0.00,CLR,,0.00,WeatherDisplay:10.37,2013-01-02 20:10:00,
2013-01-02 15:15:00,77.9,66.9,29.95,SSW,202,6.9,6.9,69,0.00,CLR,,0.00,WeatherDisplay:10.37,2013-01-02 20:15:00,
2013-01-02 15:20:00,77.9,66.9,29.95,SE,135,6.9,6.9,69,0.00,CLR,,0.00,WeatherDisplay:10.37,2013-01-02 20:20:00,
2013-01-02 15:25:00,77.7,66.7,29.95,South,180,7.2,7.2,69,0.00,CLR,,0.00,WeatherDisplay:10.37,2013-01-02 20:25:00,
2013-01-02 15:30:00,77.5,66.6,29.95,South,180,4.9,4.9,69,0.00,CLR,,0.00,WeatherDisplay:10.37,2013-01-02 20:30:00,
2013-01-02 15:35:00,77.4,66.4,29.95,South,180,8.3,8.3,69,0.00,CLR,,0.00,WeatherDisplay:10.37,2013-01-02 20:35:00,
2013-01-02 15:40:00,77.7,66.3,29.95,SE,135,9.2,9.2,68,0.00,CLR,,0.00,WeatherDisplay:10.37,2013-01-02 20:40:00,
2013-01-02 15:45:00,77.5,66.6,29.95,SE,135,6.9,6.9,69,0.00,CLR,,0.00,WeatherDisplay:10.37,2013-01-02 20:45:00,
2013-01-02 15:50:00,77.9,66.9,29.95,SSE,158,6.9,6.9,69,0.00,CLR,,0.00,WeatherDisplay:10.37,2013-01-02 20:50:00,
2013-01-02 15:55:00,77.5,66.6,29.95,SE,135,9.2,9.2,69,0.00,CLR,,0.00,WeatherDisplay:10.37,2013-01-02 20:55:00,
2013-01-02 16:00:00,77.2,66.2,29.95,SE,135,3.8,5.4,69,0.00,CLR,,0.00,WeatherDisplay:10.37,2013-01-02 21:00:00,
2013-01-02 16:05:00,76.8,65.9,29.95,SSE,158,4.6,4.8,69,0.00,CLR,,0.00,WeatherDisplay:10.37,2013-01-02 21:05:00,
2013-01-02 16:10:00,76.6,66.1,29.96,South,180,6.0,6.0,70,0.00,CLR,,0.00,WeatherDisplay:10.37,2013-01-02 21:10:00,
2013-01-02 16:15:00,76.6,66.1,29.96,South,180,8.1,8.1,70,0.00,CLR,,0.00,WeatherDisplay:10.37,2013-01-02 21:15:00,
2013-01-02 16:20:00,76.8,65.9,29.96,SSE,158,7.0,7.0,69,0.00,CLR,,0.00,WeatherDisplay:10.37,2013-01-02 21:20:00,
2013-01-02 16:25:00,76.6,66.1,29.96,SSE,158,6.9,6.9,70,0.00,CLR,,0.00,WeatherDisplay:10.37,2013-01-02 21:25:00,
2013-01-02 16:30:00,76.5,65.9,29.96,SE,135,5.8,5.8,70,0.00,CLR,,0.00,WeatherDisplay:10.37,2013-01-02 21:30:00,
2013-01-02 16:35:00,76.5,66.4,29.96,WNW,292,3.5,4.3,71,0.00,CLR,,0.00,WeatherDisplay:10.37,2013-01-02 21:35:00,
2013-01-02 16:40:00,76.5,66.4,29.96,South,180,3.6,3.6,71,0.00,CLR,,0.00,WeatherDisplay:10.37,2013-01-02 21:40:00,
2013-01-02 16:45:00,76.3,66.6,29.96,South,180,6.9,6.9,72,0.00,CLR,,0.00,WeatherDisplay:10.37,2013-01-02 21:45:00,
2013-01-02 16:50:00,76.3,66.6,29.96,ESE,112,4.6,4.6,72,0.00,CLR,,0.00,WeatherDisplay:10.37,2013-01-02 21:50:00,
2013-01-02 16:55:00,75.9,66.2,29.96,ESE,112,5.8,5.8,72,0.00,CLR,,0.00,WeatherDisplay:10.37,2013-01-02 21:55:00,
2013-01-02 17:00:00,75.9,66.2,29.96,South,180,6.2,6.2,72,0.00,CLR,,0.00,WeatherDisplay:10.37,2013-01-02 22:00:00,
2013-01-02 17:05:00,75.7,66.1,29.96,South,180,3.5,3.5,72,0.00,CLR,,0.00,WeatherDisplay:10.37,2013-01-02 22:05:00,
2013-01-02 17:10:00,75.6,65.9,29.96,SSE,158,4.9,4.9,72,0.00,CLR,,0.00,WeatherDisplay:10.37,2013-01-02 22:10:00,
2013-01-02 17:15:00,75.4,66.1,29.96,SSE,158,3.5,3.5,73,0.00,CLR,,0.00,WeatherDisplay:10.37,2013-01-02 22:15:00,
2013-01-02 17:20:00,75.2,65.9,29.96,SW,225,1.5,2.6,73,0.00,CLR,,0.00,WeatherDisplay:10.37,2013-01-02 22:20:00,
2013-01-02 17:25:00,75.2,65.9,29.96,South,180,5.8,5.8,73,0.00,CLR,,0.00,WeatherDisplay:10.37,2013-01-02 22:25:00,
2013-01-02 17:30:00,75.0,66.2,29.97,SSW,202,5.8,5.8,74,0.00,CLR,,0.00,WeatherDisplay:10.37,2013-01-02 22:30:00,
2013-01-02 17:35:00,75.0,66.2,29.97,SSW,202,3.5,3.5,74,0.00,CLR,,0.00,WeatherDisplay:10.37,2013-01-02 22:35:00,
2013-01-02 17:40:00,74.8,66.0,29.97,SE,135,3.5,3.5,74,0.00,CLR,,0.00,WeatherDisplay:10.37,2013-01-02 22:40:00,
2013-01-02 17:45:00,74.5,65.6,29.97,South,180,4.6,4.6,74,0.00,CLR,,0.00,WeatherDisplay:10.37,2013-01-02 22:45:00,
2013-01-02 17:50:00,74.5,65.6,29.97,SE,135,2.3,2.4,74,0.00,CLR,,0.00,WeatherDisplay:10.37,2013-01-02 22:50:00,
2013-01-02 17:55:00,74.3,65.5,29.97,South,180,3.5,3.5,74,0.00,CLR,,0.00,WeatherDisplay:10.37,2013-01-02 22:55:00,
2013-01-02 18:00:00,74.3,65.5,29.97,SW,225,2.8,2.8,74,0.00,CLR,,0.00,WeatherDisplay:10.37,2013-01-02 23:00:00,
2013-01-02 18:05:00,73.9,65.1,29.97,SSE,158,4.6,4.6,74,0.00,CLR,,0.00,WeatherDisplay:10.37,2013-01-02 23:05:00,
2013-01-02 18:10:00,73.8,65.0,29.98,South,180,2.3,2.3,74,0.00,CLR,,0.00,WeatherDisplay:10.37,2013-01-02 23:10:00,
2013-01-02 18:15:00,73.8,65.0,29.98,SSE,158,3.7,3.7,74,0.00,CLR,,0.00,WeatherDisplay:10.37,2013-01-02 23:15:00,
2013-01-02 18:20:00,73.8,65.0,29.98,SSE,158,3.5,3.5,74,0.00,CLR,,0.00,WeatherDisplay:10.37,2013-01-02 23:20:00,
2013-01-02 18:25:00,73.9,65.1,29.98,South,180,2.3,2.4,74,0.00,CLR,,0.00,WeatherDisplay:10.37,2013-01-02 23:25:00,
2013-01-02 18:30:00,73.6,65.2,29.98,South,180,1.1,1.8,75,0.00,CLR,,0.00,WeatherDisplay:10.37,2013-01-02 23:30:00,
2013-01-02 18:35:00,73.4,65.0,29.98,SSE,158,4.6,4.6,75,0.00,CLR,,0.00,WeatherDisplay:10.37,2013-01-02 23:35:00,
2013-01-02 18:40:00,73.6,65.2,29.98,SSW,202,4.6,4.6,75,0.00,CLR,,0.00,WeatherDisplay:10.37,2013-01-02 23:40:00,
2013-01-02 18:45:00,73.6,65.2,29.98,South,180,3.9,3.9,75,0.00,CLR,,0.00,WeatherDisplay:10.37,2013-01-02 23:45:00,
2013-01-02 18:50:00,73.4,65.4,29.98,SSE,158,2.3,2.3,76,0.00,CLR,,0.00,WeatherDisplay:10.37,2013-01-02 23:50:00,
2013-01-02 18:55:00,73.2,65.2,29.98,SE,135,2.3,2.3,76,0.00,CLR,,0.00,WeatherDisplay:10.37,2013-01-02 23:55:00,
2013-01-02 19:00:00,73.2,65.2,29.98,SSE,158,2.3,2.3,76,0.00,CLR,,0.00,WeatherDisplay:10.37,2013-01-03 00:00:00,
2013-01-02 19:05:00,73.2,65.2,29.98,South,180,0.0,1.3,76,0.00,CLR,,0.00,WeatherDisplay:10.37,2013-01-03 00:05:00,
2013-01-02 19:10:00,73.0,65.0,29.99,SSE,158,0.0,0.8,76,0.00,CLR,,0.00,WeatherDisplay:10.37,2013-01-03 00:10:00,
2013-01-02 19:15:00,72.9,64.8,29.99,SSE,158,2.6,2.6,76,0.00,CLR,,0.00,WeatherDisplay:10.37,2013-01-03 00:15:00,
2013-01-02 19:20:00,72.9,64.8,29.99,SSE,158,1.4,1.4,76,0.00,CLR,,0.00,WeatherDisplay:10.37,2013-01-03 00:20:00,
2013-01-02 19:25:00,72.9,65.2,29.99,SW,225,0.0,0.3,77,0.00,CLR,,0.00,WeatherDisplay:10.37,2013-01-03 00:25:00,
2013-01-02 19:30:00,72.7,65.1,30.00,SE,135,1.1,1.1,77,0.00,CLR,,0.00,WeatherDisplay:10.37,2013-01-03 00:30:00,
2013-01-02 19:36:00,72.5,64.9,30.00,South,180,1.1,1.1,77,0.00,CLR,,0.00,WeatherDisplay:10.37,2013-01-03 00:36:00,
2013-01-02 19:41:00,72.3,64.7,30.00,South,180,0.0,0.1,77,0.00,CLR,,0.00,WeatherDisplay:10.37,2013-01-03 00:41:00,
2013-01-02 19:46:00,72.3,64.7,30.00,South,180,0.0,0.1,77,0.00,CLR,,0.00,WeatherDisplay:10.37,2013-01-03 00:46:00,
2013-01-02 19:51:00,72.5,64.9,30.00,South,180,0.0,0.1,77,0.00,CLR,,0.00,WeatherDisplay:10.37,2013-01-03 00:51:00,
2013-01-02 19:56:00,72.1,64.5,30.00,South,180,2.3,2.3,77,0.00,CLR,,0.00,WeatherDisplay:10.37,2013-01-03 00:56:00,
2013-01-02 20:01:00,72.3,65.1,30.00,SSW,202,0.0,0.1,78,0.00,CLR,,0.00,WeatherDisplay:10.37,2013-01-03 01:01:00,
2013-01-02 20:06:00,72.5,65.2,30.00,North,0,1.6,1.6,78,0.00,CLR,,0.00,WeatherDisplay:10.37,2013-01-03 01:06:00,
2013-01-02 20:11:00,72.3,65.1,30.00,SSE,158,0.0,0.2,78,0.00,CLR,,0.00,WeatherDisplay:10.37,2013-01-03 01:11:00,
2013-01-02 20:16:00,72.5,65.2,30.00,SSE,158,0.0,0.1,78,0.00,CLR,,0.00,WeatherDisplay:10.37,2013-01-03 01:16:00,
2013-01-02 20:21:00,72.5,65.2,30.00,SE,135,0.0,0.0,78,0.00,CLR,,0.00,WeatherDisplay:10.37,2013-01-03 01:21:00,
2013-01-02 20:26:00,72.3,65.1,30.00,South,180,0.0,0.2,78,0.00,CLR,,0.00,WeatherDisplay:10.37,2013-01-03 01:26:00,
2013-01-02 20:31:00,72.5,65.2,30.00,SSE,158,2.3,2.3,78,0.00,CLR,,0.00,WeatherDisplay:10.37,2013-01-03 01:31:00,
2013-01-02 20:36:00,72.3,65.4,30.00,SE,135,2.3,2.3,79,0.00,CLR,,0.00,WeatherDisplay:10.37,2013-01-03 01:36:00,
2013-01-02 20:41:00,72.5,65.6,30.00,South,180,2.3,2.3,79,0.00,CLR,,0.00,WeatherDisplay:10.37,2013-01-03 01:41:00,
2013-01-02 20:46:00,72.3,65.4,30.00,South,180,0.0,0.3,79,0.00,CLR,,0.00,WeatherDisplay:10.37,2013-01-03 01:46:00,
2013-01-02 20:51:00,72.0,65.1,30.00,SSE,158,0.0,0.3,79,0.00,CLR,,0.00,WeatherDisplay:10.37,2013-01-03 01:51:00,
2013-01-02 20:56:00,71.8,64.9,30.00,South,180,0.0,0.1,79,0.00,CLR,,0.00,WeatherDisplay:10.37,2013-01-03 01:56:00,
2013-01-02 21:01:00,71.8,64.9,30.00,SSE,158,2.3,2.3,79,0.00,CLR,,0.00,WeatherDisplay:10.37,2013-01-03 02:01:00,
2013-01-02 21:06:00,71.6,64.7,30.01,SSE,158,0.0,0.1,79,0.00,CLR,,0.00,WeatherDisplay:10.37,2013-01-03 02:06:00,
2013-01-02 21:11:00,71.8,64.9,30.01,SSE,158,0.0,0.1,79,0.00,CLR,,0.00,WeatherDisplay:10.37,2013-01-03 02:11:00,
2013-01-02 21:16:00,71.4,64.6,30.01,South,180,0.0,0.0,79,0.00,CLR,,0.00,WeatherDisplay:10.37,2013-01-03 02:16:00,
2013-01-02 21:22:00,71.4,64.6,30.01,SW,225,0.0,0.0,79,0.00,CLR,,0.00,WeatherDisplay:10.37,2013-01-03 02:22:00,
2013-01-02 21:27:00,71.2,64.4,30.00,South,180,0.0,0.0,79,0.00,CLR,,0.00,WeatherDisplay:10.37,2013-01-03 02:27:00,
2013-01-02 21:32:00,71.4,64.6,30.00,WSW,248,0.0,0.0,79,0.00,CLR,,0.00,WeatherDisplay:10.37,2013-01-03 02:32:00,
2013-01-02 21:37:00,71.4,64.6,30.00,SSE,158,0.0,0.0,79,0.00,CLR,,0.00,WeatherDisplay:10.37,2013-01-03 02:37:00,
2013-01-02 21:42:00,71.1,64.2,30.00,South,180,1.1,1.1,79,0.00,CLR,,0.00,WeatherDisplay:10.37,2013-01-03 02:42:00,
2013-01-02 21:47:00,71.1,64.2,30.01,South,180,0.0,0.0,79,0.00,CLR,,0.00,WeatherDisplay:10.37,2013-01-03 02:47:00,
2013-01-02 21:52:00,70.9,64.0,30.01,South,180,0.0,0.0,79,0.00,CLR,,0.00,WeatherDisplay:10.37,2013-01-03 02:52:00,
2013-01-02 21:57:00,71.1,64.2,30.01,South,180,0.0,0.0,79,0.00,CLR,,0.00,WeatherDisplay:10.37,2013-01-03 02:57:00,
2013-01-02 22:02:00,71.1,64.2,30.01,SSE,158,0.0,0.0,79,0.00,CLR,,0.00,WeatherDisplay:10.37,2013-01-03 03:02:00,
2013-01-02 22:07:00,70.7,63.9,30.00,SSE,158,0.0,0.0,79,0.00,CLR,,0.00,WeatherDisplay:10.37,2013-01-03 03:07:00,
2013-01-02 22:12:00,70.7,63.9,30.00,South,180,0.0,0.0,79,0.00,CLR,,0.00,WeatherDisplay:10.37,2013-01-03 03:12:00,
2013-01-02 22:17:00,70.7,63.9,30.00,SSE,158,0.0,0.0,79,0.00,CLR,,0.00,WeatherDisplay:10.37,2013-01-03 03:17:00,
2013-01-02 22:22:00,70.5,63.7,30.00,WSW,248,0.0,0.0,79,0.00,CLR,,0.00,WeatherDisplay:10.37,2013-01-03 03:22:00,
2013-01-02 22:27:00,70.7,64.2,30.00,SE,135,1.1,1.1,80,0.00,CLR,,0.00,WeatherDisplay:10.37,2013-01-03 03:27:00,
2013-01-02 22:32:00,70.7,64.2,30.00,SSE,158,1.1,1.1,80,0.00,CLR,,0.00,WeatherDisplay:10.37,2013-01-03 03:32:00,
2013-01-02 22:38:00,70.7,64.2,30.00,South,180,1.1,1.1,80,0.00,CLR,,0.00,WeatherDisplay:10.37,2013-01-03 03:38:00,
2013-01-02 22:43:00,70.5,64.0,30.00,SW,225,0.0,0.3,80,0.00,CLR,,0.00,WeatherDisplay:10.37,2013-01-03 03:43:00,
2013-01-02 22:48:00,70.7,64.2,30.00,WSW,248,0.0,0.2,80,0.00,CLR,,0.00,WeatherDisplay:10.37,2013-01-03 03:48:00,
2013-01-02 22:53:00,70.7,64.2,30.00,WSW,248,0.0,0.1,80,0.00,CLR,,0.00,WeatherDisplay:10.37,2013-01-03 03:53:00,
2013-01-02 22:58:00,70.7,64.2,30.00,South,180,1.1,1.1,80,0.00,CLR,,0.00,WeatherDisplay:10.37,2013-01-03 03:58:00,
2013-01-02 23:03:00,70.5,64.0,30.00,SSW,202,0.0,0.1,80,0.00,CLR,,0.00,WeatherDisplay:10.37,2013-01-03 04:03:00,
2013-01-02 23:08:00,70.5,64.4,30.00,SW,225,0.0,0.0,81,0.00,CLR,,0.00,WeatherDisplay:10.37,2013-01-03 04:08:00,
2013-01-02 23:13:00,70.7,64.6,30.00,NW,315,0.0,0.0,81,0.00,CLR,,0.00,WeatherDisplay:10.37,2013-01-03 04:13:00,
2013-01-02 23:18:00,70.9,64.8,30.00,SSE,158,0.0,0.0,81,0.00,CLR,,0.00,WeatherDisplay:10.37,2013-01-03 04:18:00,
2013-01-02 23:24:00,71.1,64.9,30.00,WSW,248,1.1,1.1,81,0.00,CLR,,0.00,WeatherDisplay:10.37,2013-01-03 04:24:00,
2013-01-02 23:29:00,71.2,65.1,30.01,South,180,1.3,1.3,81,0.00,CLR,,0.00,WeatherDisplay:10.37,2013-01-03 04:29:00,
2013-01-02 23:34:00,71.2,65.1,30.01,SSW,202,0.0,0.2,81,0.00,CLR,,0.00,WeatherDisplay:10.37,2013-01-03 04:34:00,
2013-01-02 23:39:00,71.4,65.3,30.01,South,180,0.0,0.1,81,0.00,CLR,,0.00,WeatherDisplay:10.37,2013-01-03 04:39:00,
2013-01-02 23:44:00,71.4,65.3,30.01,South,180,1.1,1.1,81,0.00,CLR,,0.00,WeatherDisplay:10.37,2013-01-03 04:44:00,
2013-01-02 23:49:00,71.4,65.3,30.00,West,270,1.4,1.4,81,0.00,CLR,,0.00,WeatherDisplay:10.37,2013-01-03 04:49:00,
2013-01-02 23:54:00,71.4,65.3,30.00,NNW,338,0.0,0.0,81,0.00,CLR,,0.00,WeatherDisplay:10.37,2013-01-03 04:54:00,
2013-01-02 23:59:00,71.4,65.3,30.00,WSW,248,0.0,0.1,81,0.00,CLR,,0.00,WeatherDisplay:10.37,2013-01-03 04:59:00,